sensor_id;sensor_type;location;lat;lon;timestamp;temperature;humidity
8152;DHT22;4117;53.622;9.958;2022-08-20T00:00:30;18.10;24.80
8152;DHT22;4117;53.622;9.958;2022-08-20T00:03:04;18.10;25.70
8152;DHT22;4117;53.622;9.958;2022-08-20T00:05:48;18.10;23.80
8152;DHT22;4117;53.622;9.958;2022-08-20T00:08:18;18.10;24.30
8152;DHT22;4117;53.622;9.958;2022-08-20T00:10:46;18.10;22.70
8152;DHT22;4117;53.622;9.958;2022-08-20T00:13:17;18.10;21.60
8152;DHT22;4117;53.622;9.958;2022-08-20T00:15:46;18.20;21.40
8152;DHT22;4117;53.622;9.958;2022-08-20T00:18:14;18.20;21.40
8152;DHT22;4117;53.622;9.958;2022-08-20T00:20:45;18.20;21.40
8152;DHT22;4117;53.622;9.958;2022-08-20T00:23:14;18.20;21.40
8152;DHT22;4117;53.622;9.958;2022-08-20T00:25:42;18.20;21.40
8152;DHT22;4117;53.622;9.958;2022-08-20T00:28:10;18.30;21.40
8152;DHT22;4117;53.622;9.958;2022-08-20T00:30:38;18.30;20.10
8152;DHT22;4117;53.622;9.958;2022-08-20T00:33:08;18.20;20.00
8152;DHT22;4117;53.622;9.958;2022-08-20T00:35:40;18.30;18.50
8152;DHT22;4117;53.622;9.958;2022-08-20T00:38:08;18.30;19.00
8152;DHT22;4117;53.622;9.958;2022-08-20T00:40:43;18.20;19.40
8152;DHT22;4117;53.622;9.958;2022-08-20T00:43:26;18.30;18.50
8152;DHT22;4117;53.622;9.958;2022-08-20T00:45:56;18.30;18.30
8152;DHT22;4117;53.622;9.958;2022-08-20T00:48:25;18.30;18.60
8152;DHT22;4117;53.622;9.958;2022-08-20T00:50:58;18.30;18.70
8152;DHT22;4117;53.622;9.958;2022-08-20T00:53:32;18.20;17.10
8152;DHT22;4117;53.622;9.958;2022-08-20T00:56:02;18.30;17.90
8152;DHT22;4117;53.622;9.958;2022-08-20T00:58:30;18.30;18.70
8152;DHT22;4117;53.622;9.958;2022-08-20T01:01:00;18.30;17.90
8152;DHT22;4117;53.622;9.958;2022-08-20T01:03:27;18.30;18.10
8152;DHT22;4117;53.622;9.958;2022-08-20T01:05:55;18.30;20.30
8152;DHT22;4117;53.622;9.958;2022-08-20T01:08:23;18.30;20.70
8152;DHT22;4117;53.622;9.958;2022-08-20T01:10:54;18.30;17.90
8152;DHT22;4117;53.622;9.958;2022-08-20T01:13:34;18.30;20.80
8152;DHT22;4117;53.622;9.958;2022-08-20T01:16:10;18.30;20.00
8152;DHT22;4117;53.622;9.958;2022-08-20T01:18:38;18.30;21.40
8152;DHT22;4117;53.622;9.958;2022-08-20T01:21:07;18.30;21.20
8152;DHT22;4117;53.622;9.958;2022-08-20T01:23:39;18.30;21.40
8152;DHT22;4117;53.622;9.958;2022-08-20T01:26:11;18.30;19.40
8152;DHT22;4117;53.622;9.958;2022-08-20T01:28:43;18.30;21.40
8152;DHT22;4117;53.622;9.958;2022-08-20T01:31:14;18.30;21.20
8152;DHT22;4117;53.622;9.958;2022-08-20T01:33:43;18.30;20.40
8152;DHT22;4117;53.622;9.958;2022-08-20T01:36:11;18.30;21.90
8152;DHT22;4117;53.622;9.958;2022-08-20T01:38:41;18.30;20.80
8152;DHT22;4117;53.622;9.958;2022-08-20T01:44:13;18.20;20.00
8152;DHT22;4117;53.622;9.958;2022-08-20T01:46:42;18.20;16.40
8152;DHT22;4117;53.622;9.958;2022-08-20T01:49:16;18.20;16.10
8152;DHT22;4117;53.622;9.958;2022-08-20T01:51:45;18.20;15.80
8152;DHT22;4117;53.622;9.958;2022-08-20T01:54:13;18.20;17.60
8152;DHT22;4117;53.622;9.958;2022-08-20T01:56:52;18.20;17.20
8152;DHT22;4117;53.622;9.958;2022-08-20T01:59:22;18.20;16.60
8152;DHT22;4117;53.622;9.958;2022-08-20T02:01:50;18.20;16.70
8152;DHT22;4117;53.622;9.958;2022-08-20T02:04:20;18.10;16.80
8152;DHT22;4117;53.622;9.958;2022-08-20T02:06:51;18.10;17.00
8152;DHT22;4117;53.622;9.958;2022-08-20T02:09:20;18.10;16.00
8152;DHT22;4117;53.622;9.958;2022-08-20T02:11:49;18.10;14.70
8152;DHT22;4117;53.622;9.958;2022-08-20T02:14:18;18.10;15.60
8152;DHT22;4117;53.622;9.958;2022-08-20T02:16:48;18.10;16.00
8152;DHT22;4117;53.622;9.958;2022-08-20T02:19:20;18.10;15.40
8152;DHT22;4117;53.622;9.958;2022-08-20T02:21:52;18.10;14.50
8152;DHT22;4117;53.622;9.958;2022-08-20T02:24:24;18.10;13.60
8152;DHT22;4117;53.622;9.958;2022-08-20T02:26:51;18.10;14.00
8152;DHT22;4117;53.622;9.958;2022-08-20T02:29:21;18.10;13.60
8152;DHT22;4117;53.622;9.958;2022-08-20T02:31:51;18.10;15.20
8152;DHT22;4117;53.622;9.958;2022-08-20T02:34:19;18.10;15.00
8152;DHT22;4117;53.622;9.958;2022-08-20T02:36:47;18.10;15.60
8152;DHT22;4117;53.622;9.958;2022-08-20T02:39:14;18.10;15.00
8152;DHT22;4117;53.622;9.958;2022-08-20T02:41:41;18.00;14.80
8152;DHT22;4117;53.622;9.958;2022-08-20T02:44:09;18.00;13.60
8152;DHT22;4117;53.622;9.958;2022-08-20T02:46:38;18.00;14.90
8152;DHT22;4117;53.622;9.958;2022-08-20T02:49:08;18.00;15.60
8152;DHT22;4117;53.622;9.958;2022-08-20T02:51:35;18.00;15.00
8152;DHT22;4117;53.622;9.958;2022-08-20T02:54:03;18.00;16.10
8152;DHT22;4117;53.622;9.958;2022-08-20T02:56:31;18.00;17.30
8152;DHT22;4117;53.622;9.958;2022-08-20T02:59:02;18.10;17.50
8152;DHT22;4117;53.622;9.958;2022-08-20T03:01:30;18.00;17.20
8152;DHT22;4117;53.622;9.958;2022-08-20T03:03:59;18.00;16.10
8152;DHT22;4117;53.622;9.958;2022-08-20T03:06:32;18.00;15.90
8152;DHT22;4117;53.622;9.958;2022-08-20T03:09:00;18.00;15.90
8152;DHT22;4117;53.622;9.958;2022-08-20T03:11:36;18.00;15.90
8152;DHT22;4117;53.622;9.958;2022-08-20T03:14:04;18.00;16.40
8152;DHT22;4117;53.622;9.958;2022-08-20T03:16:37;18.00;16.00
8152;DHT22;4117;53.622;9.958;2022-08-20T03:19:04;18.00;16.60
8152;DHT22;4117;53.622;9.958;2022-08-20T03:21:34;18.00;17.10
8152;DHT22;4117;53.622;9.958;2022-08-20T03:24:01;18.00;16.90
8152;DHT22;4117;53.622;9.958;2022-08-20T03:26:30;17.90;17.00
8152;DHT22;4117;53.622;9.958;2022-08-20T03:28:58;17.90;17.00
8152;DHT22;4117;53.622;9.958;2022-08-20T03:31:26;17.90;16.90
8152;DHT22;4117;53.622;9.958;2022-08-20T03:33:55;17.90;17.60
8152;DHT22;4117;53.622;9.958;2022-08-20T03:36:26;17.90;17.80
8152;DHT22;4117;53.622;9.958;2022-08-20T03:39:00;17.90;18.80
8152;DHT22;4117;53.622;9.958;2022-08-20T03:41:27;17.90;19.10
8152;DHT22;4117;53.622;9.958;2022-08-20T03:43:56;17.90;18.50
8152;DHT22;4117;53.622;9.958;2022-08-20T03:46:24;17.90;19.10
8152;DHT22;4117;53.622;9.958;2022-08-20T03:48:52;17.90;19.80
8152;DHT22;4117;53.622;9.958;2022-08-20T03:51:19;18.00;21.20
8152;DHT22;4117;53.622;9.958;2022-08-20T03:53:46;18.00;20.80
8152;DHT22;4117;53.622;9.958;2022-08-20T03:56:18;18.00;21.20
8152;DHT22;4117;53.622;9.958;2022-08-20T03:58:45;18.00;21.20
8152;DHT22;4117;53.622;9.958;2022-08-20T04:01:14;18.00;21.20
8152;DHT22;4117;53.622;9.958;2022-08-20T04:03:41;18.00;21.20
8152;DHT22;4117;53.622;9.958;2022-08-20T04:06:10;18.10;21.30
8152;DHT22;4117;53.622;9.958;2022-08-20T04:08:37;18.10;21.30
8152;DHT22;4117;53.622;9.958;2022-08-20T04:11:08;18.10;21.30
8152;DHT22;4117;53.622;9.958;2022-08-20T04:13:37;18.10;21.30
8152;DHT22;4117;53.622;9.958;2022-08-20T04:16:04;18.10;21.30
8152;DHT22;4117;53.622;9.958;2022-08-20T04:18:34;18.10;21.30
8152;DHT22;4117;53.622;9.958;2022-08-20T04:21:03;18.10;21.30
8152;DHT22;4117;53.622;9.958;2022-08-20T04:23:30;18.10;21.30
8152;DHT22;4117;53.622;9.958;2022-08-20T04:25:58;18.20;21.50
8152;DHT22;4117;53.622;9.958;2022-08-20T04:28:26;18.20;21.40
8152;DHT22;4117;53.622;9.958;2022-08-20T04:30:58;18.20;21.50
8152;DHT22;4117;53.622;9.958;2022-08-20T04:33:27;18.20;21.40
8152;DHT22;4117;53.622;9.958;2022-08-20T04:35:58;18.20;21.50
8152;DHT22;4117;53.622;9.958;2022-08-20T04:38:27;18.30;24.60
8152;DHT22;4117;53.622;9.958;2022-08-20T04:40:54;18.30;23.90
8152;DHT22;4117;53.622;9.958;2022-08-20T04:43:27;18.30;24.60
8152;DHT22;4117;53.622;9.958;2022-08-20T04:46:00;18.30;25.80
8152;DHT22;4117;53.622;9.958;2022-08-20T04:48:31;18.30;25.10
8152;DHT22;4117;53.622;9.958;2022-08-20T04:51:04;18.30;24.70
8152;DHT22;4117;53.622;9.958;2022-08-20T04:53:33;18.30;24.90
8152;DHT22;4117;53.622;9.958;2022-08-20T04:56:01;18.30;27.30
8152;DHT22;4117;53.622;9.958;2022-08-20T04:58:31;18.40;27.30
8152;DHT22;4117;53.622;9.958;2022-08-20T05:01:05;18.40;28.20
8152;DHT22;4117;53.622;9.958;2022-08-20T05:03:34;18.40;29.80
8152;DHT22;4117;53.622;9.958;2022-08-20T05:06:03;18.40;29.90
8152;DHT22;4117;53.622;9.958;2022-08-20T05:08:32;18.40;30.70
8152;DHT22;4117;53.622;9.958;2022-08-20T05:11:00;18.40;29.20
8152;DHT22;4117;53.622;9.958;2022-08-20T05:13:30;18.40;31.50
8152;DHT22;4117;53.622;9.958;2022-08-20T05:15:57;18.50;32.30
8152;DHT22;4117;53.622;9.958;2022-08-20T05:18:31;18.50;32.30
8152;DHT22;4117;53.622;9.958;2022-08-20T05:20:59;18.50;32.30
8152;DHT22;4117;53.622;9.958;2022-08-20T05:23:34;18.50;32.30
8152;DHT22;4117;53.622;9.958;2022-08-20T05:26:02;18.50;32.30
8152;DHT22;4117;53.622;9.958;2022-08-20T05:28:32;18.60;32.60
8152;DHT22;4117;53.622;9.958;2022-08-20T05:31:00;18.60;35.00
8152;DHT22;4117;53.622;9.958;2022-08-20T05:33:29;18.60;35.80
8152;DHT22;4117;53.622;9.958;2022-08-20T05:35:57;18.60;36.30
8152;DHT22;4117;53.622;9.958;2022-08-20T05:38:26;18.60;40.90
8152;DHT22;4117;53.622;9.958;2022-08-20T05:40:54;18.70;43.10
8152;DHT22;4117;53.622;9.958;2022-08-20T05:43:21;18.70;38.40
8152;DHT22;4117;53.622;9.958;2022-08-20T05:45:49;18.70;41.90
8152;DHT22;4117;53.622;9.958;2022-08-20T05:48:19;18.80;45.40
8152;DHT22;4117;53.622;9.958;2022-08-20T05:50:49;18.70;45.20
8152;DHT22;4117;53.622;9.958;2022-08-20T05:53:19;18.80;45.40
8152;DHT22;4117;53.622;9.958;2022-08-20T05:55:46;18.80;45.40
8152;DHT22;4117;53.622;9.958;2022-08-20T05:58:15;18.80;45.40
8152;DHT22;4117;53.622;9.958;2022-08-20T06:00:43;18.80;45.40
8152;DHT22;4117;53.622;9.958;2022-08-20T06:03:10;18.90;48.40
8152;DHT22;4117;53.622;9.958;2022-08-20T06:05:56;18.90;48.60
8152;DHT22;4117;53.622;9.958;2022-08-20T06:08:23;18.90;51.30
8152;DHT22;4117;53.622;9.958;2022-08-20T06:10:50;18.90;51.60
8152;DHT22;4117;53.622;9.958;2022-08-20T06:13:17;18.90;51.00
8152;DHT22;4117;53.622;9.958;2022-08-20T06:15:44;18.90;49.10
8152;DHT22;4117;53.622;9.958;2022-08-20T06:18:12;18.90;49.60
8152;DHT22;4117;53.622;9.958;2022-08-20T06:20:39;18.90;49.40
8152;DHT22;4117;53.622;9.958;2022-08-20T06:23:07;19.00;50.10
8152;DHT22;4117;53.622;9.958;2022-08-20T06:25:37;19.00;49.70
8152;DHT22;4117;53.622;9.958;2022-08-20T06:28:04;19.00;51.40
8152;DHT22;4117;53.622;9.958;2022-08-20T06:30:31;19.00;51.10
8152;DHT22;4117;53.622;9.958;2022-08-20T06:32:58;19.00;48.70
8152;DHT22;4117;53.622;9.958;2022-08-20T06:35:25;19.00;47.50
8152;DHT22;4117;53.622;9.958;2022-08-20T06:37:52;19.10;47.80
8152;DHT22;4117;53.622;9.958;2022-08-20T06:40:24;19.10;48.90
8152;DHT22;4117;53.622;9.958;2022-08-20T06:42:53;19.10;49.60
8152;DHT22;4117;53.622;9.958;2022-08-20T06:45:22;19.20;49.10
8152;DHT22;4117;53.622;9.958;2022-08-20T06:47:51;19.20;51.40
8152;DHT22;4117;53.622;9.958;2022-08-20T06:50:21;19.30;51.30
8152;DHT22;4117;53.622;9.958;2022-08-20T06:52:49;19.40;52.80
8152;DHT22;4117;53.622;9.958;2022-08-20T06:55:16;19.50;50.80
8152;DHT22;4117;53.622;9.958;2022-08-20T06:57:44;19.50;52.60
8152;DHT22;4117;53.622;9.958;2022-08-20T07:00:15;19.50;49.30
8152;DHT22;4117;53.622;9.958;2022-08-20T07:02:42;19.50;46.70
8152;DHT22;4117;53.622;9.958;2022-08-20T07:05:10;19.60;49.50
8152;DHT22;4117;53.622;9.958;2022-08-20T07:07:37;19.60;48.40
8152;DHT22;4117;53.622;9.958;2022-08-20T07:10:07;19.60;48.60
8152;DHT22;4117;53.622;9.958;2022-08-20T07:12:34;19.60;47.60
8152;DHT22;4117;53.622;9.958;2022-08-20T07:15:03;19.60;46.00
8152;DHT22;4117;53.622;9.958;2022-08-20T07:17:30;19.60;46.10
8152;DHT22;4117;53.622;9.958;2022-08-20T07:19:57;19.70;46.10
8152;DHT22;4117;53.622;9.958;2022-08-20T07:22:23;19.70;45.70
8152;DHT22;4117;53.622;9.958;2022-08-20T07:24:51;19.80;42.10
8152;DHT22;4117;53.622;9.958;2022-08-20T07:27:22;19.80;40.10
8152;DHT22;4117;53.622;9.958;2022-08-20T07:29:50;19.80;40.80
8152;DHT22;4117;53.622;9.958;2022-08-20T07:32:37;19.80;40.70
8152;DHT22;4117;53.622;9.958;2022-08-20T07:35:06;19.80;40.00
8152;DHT22;4117;53.622;9.958;2022-08-20T07:37:37;19.80;35.10
8152;DHT22;4117;53.622;9.958;2022-08-20T07:40:06;19.80;33.40
8152;DHT22;4117;53.622;9.958;2022-08-20T07:42:33;19.80;33.40
8152;DHT22;4117;53.622;9.958;2022-08-20T07:45:01;19.90;33.40
8152;DHT22;4117;53.622;9.958;2022-08-20T07:47:28;19.90;31.80
8152;DHT22;4117;53.622;9.958;2022-08-20T07:49:56;19.90;27.90
8152;DHT22;4117;53.622;9.958;2022-08-20T07:52:23;20.00;28.80
8152;DHT22;4117;53.622;9.958;2022-08-20T07:54:50;20.00;29.10
8152;DHT22;4117;53.622;9.958;2022-08-20T07:57:17;20.00;22.60
8152;DHT22;4117;53.622;9.958;2022-08-20T07:59:43;20.00;22.50
8152;DHT22;4117;53.622;9.958;2022-08-20T08:02:11;20.10;22.60
8152;DHT22;4117;53.622;9.958;2022-08-20T08:04:38;20.20;22.70
8152;DHT22;4117;53.622;9.958;2022-08-20T08:07:06;20.20;22.60
8152;DHT22;4117;53.622;9.958;2022-08-20T08:09:34;20.20;22.30
8152;DHT22;4117;53.622;9.958;2022-08-20T08:12:02;20.20;20.80
8152;DHT22;4117;53.622;9.958;2022-08-20T08:14:31;20.30;20.50
8152;DHT22;4117;53.622;9.958;2022-08-20T08:17:03;20.30;19.30
8152;DHT22;4117;53.622;9.958;2022-08-20T08:19:35;20.30;17.50
8152;DHT22;4117;53.622;9.958;2022-08-20T08:22:06;20.40;20.00
8152;DHT22;4117;53.622;9.958;2022-08-20T08:24:36;20.40;16.40
8152;DHT22;4117;53.622;9.958;2022-08-20T08:27:03;20.40;13.70
8152;DHT22;4117;53.622;9.958;2022-08-20T08:29:32;20.40;17.20
8152;DHT22;4117;53.622;9.958;2022-08-20T08:32:01;20.50;16.40
8152;DHT22;4117;53.622;9.958;2022-08-20T08:34:31;20.50;13.90
8152;DHT22;4117;53.622;9.958;2022-08-20T08:36:58;20.50;12.20
8152;DHT22;4117;53.622;9.958;2022-08-20T08:39:28;20.50;12.10
8152;DHT22;4117;53.622;9.958;2022-08-20T08:41:56;20.60;10.50
8152;DHT22;4117;53.622;9.958;2022-08-20T08:44:28;20.60;1.70
8152;DHT22;4117;53.622;9.958;2022-08-20T08:46:59;20.60;1.00
8152;DHT22;4117;53.622;9.958;2022-08-20T08:49:30;20.60;1.00
8152;DHT22;4117;53.622;9.958;2022-08-20T08:52:03;20.70;1.00
8152;DHT22;4117;53.622;9.958;2022-08-20T08:54:34;20.80;1.10
8152;DHT22;4117;53.622;9.958;2022-08-20T08:57:01;20.90;1.00
8152;DHT22;4117;53.622;9.958;2022-08-20T08:59:29;20.90;1.00
8152;DHT22;4117;53.622;9.958;2022-08-20T09:01:59;21.00;1.00
8152;DHT22;4117;53.622;9.958;2022-08-20T09:04:30;21.00;1.00
8152;DHT22;4117;53.622;9.958;2022-08-20T09:06:58;21.10;1.00
8152;DHT22;4117;53.622;9.958;2022-08-20T09:09:29;21.10;1.00
8152;DHT22;4117;53.622;9.958;2022-08-20T09:12:05;21.10;1.00
8152;DHT22;4117;53.622;9.958;2022-08-20T09:14:32;21.10;1.00
8152;DHT22;4117;53.622;9.958;2022-08-20T09:17:00;21.00;1.00
8152;DHT22;4117;53.622;9.958;2022-08-20T09:19:27;21.00;1.00
8152;DHT22;4117;53.622;9.958;2022-08-20T09:21:54;21.00;1.00
8152;DHT22;4117;53.622;9.958;2022-08-20T09:24:21;21.00;1.00
8152;DHT22;4117;53.622;9.958;2022-08-20T09:26:48;21.00;1.00
8152;DHT22;4117;53.622;9.958;2022-08-20T09:29:17;21.10;1.00
8152;DHT22;4117;53.622;9.958;2022-08-20T09:31:44;21.20;1.00
8152;DHT22;4117;53.622;9.958;2022-08-20T09:34:11;21.20;1.00
8152;DHT22;4117;53.622;9.958;2022-08-20T09:36:38;21.20;1.00
8152;DHT22;4117;53.622;9.958;2022-08-20T09:39:05;21.20;1.00
8152;DHT22;4117;53.622;9.958;2022-08-20T09:41:31;21.20;1.00
8152;DHT22;4117;53.622;9.958;2022-08-20T09:43:58;21.40;1.00
8152;DHT22;4117;53.622;9.958;2022-08-20T09:46:26;21.40;1.00
8152;DHT22;4117;53.622;9.958;2022-08-20T09:48:53;21.40;1.00
8152;DHT22;4117;53.622;9.958;2022-08-20T09:51:21;21.40;1.00
8152;DHT22;4117;53.622;9.958;2022-08-20T09:53:48;21.50;1.00
8152;DHT22;4117;53.622;9.958;2022-08-20T09:56:16;21.40;1.00
8152;DHT22;4117;53.622;9.958;2022-08-20T09:58:47;21.40;1.00
8152;DHT22;4117;53.622;9.958;2022-08-20T10:01:16;21.40;1.00
8152;DHT22;4117;53.622;9.958;2022-08-20T10:03:46;21.50;1.00
8152;DHT22;4117;53.622;9.958;2022-08-20T10:06:14;21.60;1.00
8152;DHT22;4117;53.622;9.958;2022-08-20T10:08:41;21.60;1.00
8152;DHT22;4117;53.622;9.958;2022-08-20T10:11:09;21.50;1.00
8152;DHT22;4117;53.622;9.958;2022-08-20T10:13:35;21.50;1.00
8152;DHT22;4117;53.622;9.958;2022-08-20T10:16:03;21.50;1.00
8152;DHT22;4117;53.622;9.958;2022-08-20T10:18:30;21.50;1.00
8152;DHT22;4117;53.622;9.958;2022-08-20T10:20:58;21.60;1.00
8152;DHT22;4117;53.622;9.958;2022-08-20T10:23:25;21.70;1.00
8152;DHT22;4117;53.622;9.958;2022-08-20T10:25:52;21.70;1.00
8152;DHT22;4117;53.622;9.958;2022-08-20T10:28:19;21.80;1.00
8152;DHT22;4117;53.622;9.958;2022-08-20T10:30:46;21.70;1.00
8152;DHT22;4117;53.622;9.958;2022-08-20T10:33:13;21.70;1.00
8152;DHT22;4117;53.622;9.958;2022-08-20T10:35:40;21.70;1.00
8152;DHT22;4117;53.622;9.958;2022-08-20T10:38:08;21.70;1.00
8152;DHT22;4117;53.622;9.958;2022-08-20T10:40:35;21.80;1.00
8152;DHT22;4117;53.622;9.958;2022-08-20T10:43:02;21.80;1.00
8152;DHT22;4117;53.622;9.958;2022-08-20T10:45:29;21.80;1.00
8152;DHT22;4117;53.622;9.958;2022-08-20T10:47:57;21.80;1.00
8152;DHT22;4117;53.622;9.958;2022-08-20T10:50:24;21.80;1.00
8152;DHT22;4117;53.622;9.958;2022-08-20T10:52:51;21.80;1.00
8152;DHT22;4117;53.622;9.958;2022-08-20T10:55:20;21.80;1.00
8152;DHT22;4117;53.622;9.958;2022-08-20T10:57:47;21.80;1.00
8152;DHT22;4117;53.622;9.958;2022-08-20T11:00:15;21.70;1.00
8152;DHT22;4117;53.622;9.958;2022-08-20T11:02:43;21.80;1.00
8152;DHT22;4117;53.622;9.958;2022-08-20T11:05:10;21.80;1.00
8152;DHT22;4117;53.622;9.958;2022-08-20T11:07:39;21.70;1.00
8152;DHT22;4117;53.622;9.958;2022-08-20T11:10:07;21.80;1.00
8152;DHT22;4117;53.622;9.958;2022-08-20T11:12:36;21.80;1.00
8152;DHT22;4117;53.622;9.958;2022-08-20T11:15:04;21.80;1.00
8152;DHT22;4117;53.622;9.958;2022-08-20T11:17:32;21.80;1.00
8152;DHT22;4117;53.622;9.958;2022-08-20T11:20:00;21.70;1.00
8152;DHT22;4117;53.622;9.958;2022-08-20T11:22:28;21.80;1.00
8152;DHT22;4117;53.622;9.958;2022-08-20T11:24:55;21.80;1.00
8152;DHT22;4117;53.622;9.958;2022-08-20T11:27:24;21.80;1.00
8152;DHT22;4117;53.622;9.958;2022-08-20T11:29:53;21.80;1.00
8152;DHT22;4117;53.622;9.958;2022-08-20T11:32:20;21.80;1.00
8152;DHT22;4117;53.622;9.958;2022-08-20T11:34:48;22.00;1.00
8152;DHT22;4117;53.622;9.958;2022-08-20T11:37:16;22.10;1.00
8152;DHT22;4117;53.622;9.958;2022-08-20T11:39:43;22.20;1.00
8152;DHT22;4117;53.622;9.958;2022-08-20T11:42:11;22.10;1.00
8152;DHT22;4117;53.622;9.958;2022-08-20T11:44:38;22.10;1.00
8152;DHT22;4117;53.622;9.958;2022-08-20T11:47:07;22.10;1.00
8152;DHT22;4117;53.622;9.958;2022-08-20T11:49:36;22.20;1.00
8152;DHT22;4117;53.622;9.958;2022-08-20T11:52:04;22.20;1.00
8152;DHT22;4117;53.622;9.958;2022-08-20T11:54:31;22.10;1.00
8152;DHT22;4117;53.622;9.958;2022-08-20T11:56:58;22.10;1.00
8152;DHT22;4117;53.622;9.958;2022-08-20T11:59:25;22.10;1.00
8152;DHT22;4117;53.622;9.958;2022-08-20T12:01:53;22.20;1.00
8152;DHT22;4117;53.622;9.958;2022-08-20T12:04:21;22.10;1.00
8152;DHT22;4117;53.622;9.958;2022-08-20T12:06:48;22.10;1.00
8152;DHT22;4117;53.622;9.958;2022-08-20T12:09:15;22.10;1.00
8152;DHT22;4117;53.622;9.958;2022-08-20T12:11:43;22.20;1.00
8152;DHT22;4117;53.622;9.958;2022-08-20T12:14:10;22.30;1.00
8152;DHT22;4117;53.622;9.958;2022-08-20T12:16:37;22.30;1.00
8152;DHT22;4117;53.622;9.958;2022-08-20T12:19:04;22.20;1.00
8152;DHT22;4117;53.622;9.958;2022-08-20T12:21:32;22.20;1.00
8152;DHT22;4117;53.622;9.958;2022-08-20T12:23:59;22.30;1.00
8152;DHT22;4117;53.622;9.958;2022-08-20T12:26:26;22.40;1.00
8152;DHT22;4117;53.622;9.958;2022-08-20T12:28:53;22.40;1.00
8152;DHT22;4117;53.622;9.958;2022-08-20T12:31:20;22.50;1.00
8152;DHT22;4117;53.622;9.958;2022-08-20T12:33:47;22.60;1.00
8152;DHT22;4117;53.622;9.958;2022-08-20T12:36:14;22.60;1.00
8152;DHT22;4117;53.622;9.958;2022-08-20T12:38:42;22.50;1.00
8152;DHT22;4117;53.622;9.958;2022-08-20T12:41:09;22.50;1.00
8152;DHT22;4117;53.622;9.958;2022-08-20T12:43:36;22.50;1.00
8152;DHT22;4117;53.622;9.958;2022-08-20T12:46:03;22.40;1.00
8152;DHT22;4117;53.622;9.958;2022-08-20T12:48:29;22.40;1.00
8152;DHT22;4117;53.622;9.958;2022-08-20T12:50:56;22.40;1.00
8152;DHT22;4117;53.622;9.958;2022-08-20T12:53:23;22.40;1.00
8152;DHT22;4117;53.622;9.958;2022-08-20T12:55:51;22.40;1.00
8152;DHT22;4117;53.622;9.958;2022-08-20T12:58:18;22.40;1.00
8152;DHT22;4117;53.622;9.958;2022-08-20T13:00:45;22.40;1.00
8152;DHT22;4117;53.622;9.958;2022-08-20T13:03:12;22.60;1.00
8152;DHT22;4117;53.622;9.958;2022-08-20T13:05:40;22.50;1.00
8152;DHT22;4117;53.622;9.958;2022-08-20T13:08:09;22.60;1.00
8152;DHT22;4117;53.622;9.958;2022-08-20T13:10:40;22.60;1.00
8152;DHT22;4117;53.622;9.958;2022-08-20T13:13:11;22.70;1.00
8152;DHT22;4117;53.622;9.958;2022-08-20T13:15:38;22.80;1.00
8152;DHT22;4117;53.622;9.958;2022-08-20T13:18:06;22.90;1.00
8152;DHT22;4117;53.622;9.958;2022-08-20T13:20:34;23.00;1.00
8152;DHT22;4117;53.622;9.958;2022-08-20T13:23:02;22.90;1.00
8152;DHT22;4117;53.622;9.958;2022-08-20T13:25:30;22.80;1.00
8152;DHT22;4117;53.622;9.958;2022-08-20T13:27:58;22.70;1.00
8152;DHT22;4117;53.622;9.958;2022-08-20T13:30:27;22.80;1.00
8152;DHT22;4117;53.622;9.958;2022-08-20T13:32:54;22.90;1.00
8152;DHT22;4117;53.622;9.958;2022-08-20T13:35:21;23.10;1.00
8152;DHT22;4117;53.622;9.958;2022-08-20T13:37:49;23.20;1.00
8152;DHT22;4117;53.622;9.958;2022-08-20T13:40:17;23.00;1.00
8152;DHT22;4117;53.622;9.958;2022-08-20T13:42:45;22.80;1.00
8152;DHT22;4117;53.622;9.958;2022-08-20T13:45:12;22.90;1.00
8152;DHT22;4117;53.622;9.958;2022-08-20T13:47:41;22.90;1.00
8152;DHT22;4117;53.622;9.958;2022-08-20T13:50:11;22.80;1.00
8152;DHT22;4117;53.622;9.958;2022-08-20T13:52:40;22.80;1.00
8152;DHT22;4117;53.622;9.958;2022-08-20T13:55:08;22.80;1.00
8152;DHT22;4117;53.622;9.958;2022-08-20T13:57:38;22.90;1.00
8152;DHT22;4117;53.622;9.958;2022-08-20T14:00:08;23.00;1.00
8152;DHT22;4117;53.622;9.958;2022-08-20T14:02:36;23.00;1.00
8152;DHT22;4117;53.622;9.958;2022-08-20T14:05:05;23.00;1.00
8152;DHT22;4117;53.622;9.958;2022-08-20T14:07:32;23.00;1.00
8152;DHT22;4117;53.622;9.958;2022-08-20T14:10:03;23.10;1.00
8152;DHT22;4117;53.622;9.958;2022-08-20T14:12:30;23.10;1.00
8152;DHT22;4117;53.622;9.958;2022-08-20T14:14:57;23.10;1.00
8152;DHT22;4117;53.622;9.958;2022-08-20T14:17:27;23.10;1.00
8152;DHT22;4117;53.622;9.958;2022-08-20T14:19:55;22.90;1.00
8152;DHT22;4117;53.622;9.958;2022-08-20T14:22:25;23.10;1.00
8152;DHT22;4117;53.622;9.958;2022-08-20T14:24:53;23.10;1.00
8152;DHT22;4117;53.622;9.958;2022-08-20T14:27:21;23.10;1.00
8152;DHT22;4117;53.622;9.958;2022-08-20T14:29:49;23.00;1.00
8152;DHT22;4117;53.622;9.958;2022-08-20T14:32:17;23.00;1.00
8152;DHT22;4117;53.622;9.958;2022-08-20T14:34:44;23.20;1.00
8152;DHT22;4117;53.622;9.958;2022-08-20T14:37:14;23.30;1.00
8152;DHT22;4117;53.622;9.958;2022-08-20T14:39:44;23.30;1.00
8152;DHT22;4117;53.622;9.958;2022-08-20T14:42:11;23.20;1.00
8152;DHT22;4117;53.622;9.958;2022-08-20T14:44:41;23.40;1.00
8152;DHT22;4117;53.622;9.958;2022-08-20T14:47:14;23.50;1.00
8152;DHT22;4117;53.622;9.958;2022-08-20T14:49:42;23.50;1.00
8152;DHT22;4117;53.622;9.958;2022-08-20T14:52:10;23.60;1.00
8152;DHT22;4117;53.622;9.958;2022-08-20T14:54:38;23.20;1.00
8152;DHT22;4117;53.622;9.958;2022-08-20T14:57:07;23.40;1.00
8152;DHT22;4117;53.622;9.958;2022-08-20T14:59:34;23.40;1.00
8152;DHT22;4117;53.622;9.958;2022-08-20T15:02:03;23.40;1.00
8152;DHT22;4117;53.622;9.958;2022-08-20T15:04:30;23.30;1.00
8152;DHT22;4117;53.622;9.958;2022-08-20T15:06:57;23.30;1.00
8152;DHT22;4117;53.622;9.958;2022-08-20T15:09:27;23.40;1.00
8152;DHT22;4117;53.622;9.958;2022-08-20T15:11:55;23.60;1.00
8152;DHT22;4117;53.622;9.958;2022-08-20T15:14:23;23.60;1.00
8152;DHT22;4117;53.622;9.958;2022-08-20T15:16:51;23.60;1.00
8152;DHT22;4117;53.622;9.958;2022-08-20T15:19:18;23.60;1.00
8152;DHT22;4117;53.622;9.958;2022-08-20T15:21:45;23.60;1.00
8152;DHT22;4117;53.622;9.958;2022-08-20T15:24:12;23.50;1.00
8152;DHT22;4117;53.622;9.958;2022-08-20T15:26:39;23.60;1.00
8152;DHT22;4117;53.622;9.958;2022-08-20T15:29:06;23.50;1.00
8152;DHT22;4117;53.622;9.958;2022-08-20T15:31:35;23.50;1.00
8152;DHT22;4117;53.622;9.958;2022-08-20T15:34:02;23.60;1.00
8152;DHT22;4117;53.622;9.958;2022-08-20T15:36:28;23.70;1.00
8152;DHT22;4117;53.622;9.958;2022-08-20T15:38:55;23.60;1.00
8152;DHT22;4117;53.622;9.958;2022-08-20T15:41:22;23.40;1.00
8152;DHT22;4117;53.622;9.958;2022-08-20T15:43:49;23.60;1.00
8152;DHT22;4117;53.622;9.958;2022-08-20T15:46:19;23.70;1.00
8152;DHT22;4117;53.622;9.958;2022-08-20T15:48:47;23.70;1.00
8152;DHT22;4117;53.622;9.958;2022-08-20T15:51:22;23.60;1.00
8152;DHT22;4117;53.622;9.958;2022-08-20T15:53:56;23.50;1.00
8152;DHT22;4117;53.622;9.958;2022-08-20T15:56:45;23.60;1.00
8152;DHT22;4117;53.622;9.958;2022-08-20T15:59:25;23.50;1.00
8152;DHT22;4117;53.622;9.958;2022-08-20T16:02:06;23.50;1.00
8152;DHT22;4117;53.622;9.958;2022-08-20T16:05:02;23.50;1.00
8152;DHT22;4117;53.622;9.958;2022-08-20T16:07:44;23.50;1.00
8152;DHT22;4117;53.622;9.958;2022-08-20T16:10:17;23.60;1.00
8152;DHT22;4117;53.622;9.958;2022-08-20T16:12:59;23.40;1.00
8152;DHT22;4117;53.622;9.958;2022-08-20T16:15:29;23.30;1.00
8152;DHT22;4117;53.622;9.958;2022-08-20T16:18:00;23.50;1.00
8152;DHT22;4117;53.622;9.958;2022-08-20T16:20:38;23.20;1.00
8152;DHT22;4117;53.622;9.958;2022-08-20T16:23:05;23.30;1.00